createdAt,value
2022-11-15T00:01:19.145Z,11.30
2022-11-15T00:03:47.907Z,11.30
2022-11-15T00:06:17.468Z,11.30
2022-11-15T00:08:45.797Z,11.20
2022-11-15T00:11:14.702Z,11.30
2022-11-15T00:13:43.125Z,11.20
2022-11-15T00:16:12.576Z,11.30
2022-11-15T00:18:42.425Z,11.20
2022-11-15T00:21:13.876Z,11.20
2022-11-15T00:23:43.733Z,11.20
2022-11-15T00:26:14.842Z,11.40
2022-11-15T00:28:43.465Z,11.30
2022-11-15T00:31:14.754Z,11.30
2022-11-15T00:33:45.901Z,11.50
2022-11-15T00:36:14.596Z,11.40
2022-11-15T00:38:44.436Z,11.60
2022-11-15T00:41:12.642Z,11.60
2022-11-15T00:43:41.394Z,11.60
2022-11-15T00:46:10.756Z,11.80
2022-11-15T00:48:39.284Z,11.90
2022-11-15T00:51:07.725Z,11.90
2022-11-15T00:53:36.330Z,12.00
2022-11-15T00:56:06.068Z,11.80
2022-11-15T00:58:34.649Z,11.90
2022-11-15T01:01:11.036Z,11.90
2022-11-15T01:03:40.266Z,12.10
2022-11-15T01:06:09.991Z,12.10
2022-11-15T01:08:38.314Z,12.10
2022-11-15T01:11:10.615Z,12.00
2022-11-15T01:13:40.516Z,11.90
2022-11-15T01:16:10.312Z,12.00
2022-11-15T01:18:39.116Z,12.40
2022-11-15T01:21:08.756Z,12.40
2022-11-15T01:23:37.161Z,12.50
2022-11-15T01:26:08.197Z,12.70
2022-11-15T01:28:38.258Z,12.50
2022-11-15T01:31:08.225Z,12.30
2022-11-15T01:33:37.677Z,12.90
2022-11-15T01:36:07.079Z,12.70
2022-11-15T01:38:35.738Z,12.50
2022-11-15T01:41:04.139Z,12.50
2022-11-15T01:43:37.145Z,13.00
2022-11-15T01:46:17.378Z,13.00
2022-11-15T01:48:46.260Z,12.90
2022-11-15T01:51:18.352Z,13.00
2022-11-15T01:53:49.460Z,13.00
2022-11-15T01:56:22.587Z,13.10
2022-11-15T01:58:53.515Z,13.20
2022-11-15T02:01:21.985Z,13.10
2022-11-15T02:03:54.223Z,13.00
2022-11-15T02:06:23.626Z,12.90
2022-11-15T02:08:52.806Z,12.90
2022-11-15T02:11:21.182Z,12.70
2022-11-15T02:13:49.624Z,12.70
2022-11-15T02:16:32.510Z,12.60
2022-11-15T02:19:10.617Z,12.90
2022-11-15T02:21:43.280Z,12.80
2022-11-15T02:24:48.744Z,12.60
2022-11-15T02:27:48.031Z,13.20
2022-11-15T02:30:22.874Z,12.90
2022-11-15T02:32:56.827Z,13.50
2022-11-15T02:35:35.849Z,13.10
2022-11-15T02:38:10.651Z,13.50
2022-11-15T02:40:44.840Z,14.00
2022-11-15T02:43:34.877Z,13.80
2022-11-15T02:46:11.327Z,13.50
2022-11-15T02:48:40.043Z,13.40
2022-11-15T02:51:08.772Z,13.40
2022-11-15T02:53:37.095Z,13.10
2022-11-15T02:56:05.708Z,13.20
2022-11-15T02:59:03.044Z,13.40
2022-11-15T03:01:48.772Z,13.20
2022-11-15T03:04:31.235Z,13.10
2022-11-15T03:07:07.828Z,12.60
2022-11-15T03:09:40.713Z,12.40
2022-11-15T03:12:15.137Z,12.50
2022-11-15T03:14:52.680Z,12.30
2022-11-15T03:17:27.756Z,12.20
2022-11-15T03:19:58.332Z,12.10
2022-11-15T03:22:28.545Z,12.10
2022-11-15T03:25:00.090Z,11.90
2022-11-15T03:27:33.840Z,11.90
2022-11-15T03:30:07.003Z,11.70
2022-11-15T03:32:40.900Z,11.70
2022-11-15T03:35:12.603Z,11.80
2022-11-15T03:37:46.014Z,11.80
2022-11-15T03:40:14.869Z,11.70
2022-11-15T03:42:49.046Z,11.70
2022-11-15T03:45:21.171Z,12.00
2022-11-15T03:47:55.969Z,11.90
2022-11-15T03:50:26.296Z,11.90
2022-11-15T03:52:57.421Z,12.30
2022-11-15T03:55:25.873Z,12.40
2022-11-15T03:57:57.816Z,12.20
2022-11-15T04:00:26.199Z,12.00
2022-11-15T04:02:55.749Z,12.20
2022-11-15T04:05:24.182Z,11.80
2022-11-15T04:07:52.850Z,11.60
2022-11-15T04:10:21.497Z,11.40
2022-11-15T04:12:49.674Z,11.50
2022-11-15T04:15:19.322Z,11.70
2022-11-15T04:17:49.262Z,11.30
2022-11-15T04:20:37.968Z,11.30
2022-11-15T04:23:26.012Z,11.30
2022-11-15T04:25:56.274Z,11.60
2022-11-15T04:28:25.086Z,11.40
2022-11-15T04:30:53.519Z,11.60
2022-11-15T04:33:22.290Z,11.40
2022-11-15T04:36:06.039Z,11.20
2022-11-15T04:38:34.426Z,11.10
2022-11-15T04:41:03.050Z,11.00
2022-11-15T04:43:31.891Z,10.90
2022-11-15T04:46:00.649Z,10.80
2022-11-15T04:48:29.082Z,10.80
2022-11-15T04:50:58.589Z,10.70
2022-11-15T04:53:26.937Z,10.70
2022-11-15T04:55:55.112Z,10.60
2022-11-15T04:58:23.444Z,10.60
2022-11-15T05:00:51.894Z,10.60
2022-11-15T05:03:37.503Z,10.60
2022-11-15T05:06:08.052Z,10.70
2022-11-15T05:08:36.648Z,10.50
2022-11-15T05:11:04.990Z,10.60
2022-11-15T05:13:33.984Z,10.70
2022-11-15T05:16:02.674Z,11.00
2022-11-15T05:18:31.039Z,11.00
2022-11-15T05:21:04.705Z,10.80
2022-11-15T05:23:34.570Z,10.70
2022-11-15T05:26:08.878Z,11.30
2022-11-15T05:28:38.340Z,11.30
2022-11-15T05:31:08.435Z,11.30
2022-11-15T05:33:37.379Z,11.40
2022-11-15T05:36:09.900Z,11.70
2022-11-15T05:38:39.993Z,11.10
2022-11-15T05:41:08.675Z,11.10
2022-11-15T05:43:41.023Z,10.80
2022-11-15T05:46:09.463Z,10.90
2022-11-15T05:48:40.037Z,11.10
2022-11-15T05:51:09.692Z,11.30
2022-11-15T05:53:39.829Z,10.90
2022-11-15T05:56:08.623Z,11.20
2022-11-15T05:58:38.230Z,10.80
2022-11-15T06:01:07.154Z,10.60
2022-11-15T06:03:35.555Z,10.60
2022-11-15T06:06:03.974Z,10.80
2022-11-15T06:08:32.233Z,10.60
2022-11-15T06:11:07.109Z,11.10
2022-11-15T06:13:35.440Z,10.60
2022-11-15T06:16:04.262Z,10.50
2022-11-15T06:18:35.449Z,10.60
2022-11-15T06:21:03.974Z,10.40
2022-11-15T06:23:35.177Z,10.80
2022-11-15T06:26:04.647Z,10.60
2022-11-15T06:28:34.971Z,10.70
2022-11-15T06:31:05.733Z,11.00
2022-11-15T06:33:35.118Z,10.80
2022-11-15T06:36:04.027Z,10.80
2022-11-15T06:38:32.351Z,10.80
2022-11-15T06:41:04.468Z,11.40
2022-11-15T06:43:34.433Z,11.60
2022-11-15T06:46:03.782Z,11.80
2022-11-15T06:48:33.140Z,11.50
2022-11-15T06:51:04.054Z,11.90
2022-11-15T06:53:33.920Z,12.10
2022-11-15T06:56:03.361Z,12.30
2022-11-15T06:58:33.122Z,12.40
2022-11-15T07:01:01.996Z,12.50
2022-11-15T07:03:31.059Z,12.50
2022-11-15T07:06:05.726Z,12.70
2022-11-15T07:08:36.050Z,13.60
2022-11-15T07:11:07.150Z,13.60
2022-11-15T07:13:38.408Z,14.50
2022-11-15T07:16:07.870Z,14.30
2022-11-15T07:18:37.147Z,13.90
2022-11-15T07:21:06.379Z,13.50
2022-11-15T07:23:35.007Z,12.90
2022-11-15T07:26:03.428Z,12.80
2022-11-15T07:28:31.856Z,13.50
2022-11-15T07:31:04.531Z,13.40
2022-11-15T07:33:33.429Z,12.70
2022-11-15T07:36:03.577Z,12.70
2022-11-15T07:38:32.189Z,12.30
2022-11-15T07:41:01.767Z,12.40
2022-11-15T07:43:30.902Z,12.30
2022-11-15T07:45:59.901Z,12.30
2022-11-15T07:48:42.675Z,12.10
2022-11-15T07:51:14.618Z,11.90
2022-11-15T07:53:43.476Z,11.80
2022-11-15T07:56:12.398Z,12.60
2022-11-15T07:58:40.873Z,12.40
2022-11-15T08:01:10.995Z,12.20
2022-11-15T08:03:40.756Z,12.10
2022-11-15T08:06:09.187Z,12.80
2022-11-15T08:08:37.390Z,12.70
2022-11-15T08:11:05.745Z,13.10
2022-11-15T08:13:34.537Z,13.50
2022-11-15T08:16:06.522Z,14.40
2022-11-15T08:18:35.137Z,14.30
2022-11-15T08:21:04.962Z,14.50
2022-11-15T08:23:33.704Z,13.80
2022-11-15T08:26:03.716Z,13.10
2022-11-15T08:28:32.583Z,13.50
2022-11-15T08:31:01.043Z,13.30
2022-11-15T08:33:30.148Z,13.80
2022-11-15T08:35:59.499Z,14.30
2022-11-15T08:38:31.621Z,14.80
2022-11-15T08:41:04.099Z,15.20
2022-11-15T08:43:32.508Z,14.80
2022-11-15T08:46:01.197Z,14.80
2022-11-15T08:48:29.701Z,15.00
2022-11-15T08:50:58.467Z,14.70
2022-11-15T08:53:28.313Z,14.50
2022-11-15T08:55:56.518Z,14.20
2022-11-15T08:58:25.131Z,14.70
2022-11-15T09:00:53.485Z,15.30
2022-11-15T09:03:22.204Z,15.30
2022-11-15T09:05:51.014Z,15.00
2022-11-15T09:08:46.060Z,15.70
2022-11-15T09:11:10.885Z,15.80
2022-11-15T09:13:39.413Z,15.90
2022-11-15T09:16:08.152Z,16.00
2022-11-15T09:18:36.966Z,16.20
2022-11-15T09:21:05.534Z,16.00
2022-11-15T09:23:33.957Z,15.50
2022-11-15T09:26:03.815Z,15.60
2022-11-15T09:28:34.731Z,16.00
2022-11-15T09:31:04.663Z,16.20
2022-11-15T09:33:33.549Z,16.00
2022-11-15T09:36:03.257Z,16.10
2022-11-15T09:38:31.806Z,16.20
2022-11-15T09:41:20.381Z,16.30
2022-11-15T09:43:57.331Z,16.30
2022-11-15T09:46:34.486Z,16.30
2022-11-15T09:49:04.100Z,16.50
2022-11-15T09:51:35.346Z,16.20
2022-11-15T09:57:08.418Z,15.80
2022-11-15T10:00:23.732Z,16.20
2022-11-15T10:03:12.296Z,16.20
2022-11-15T10:05:42.796Z,16.60
2022-11-15T10:08:24.887Z,16.70
2022-11-15T10:11:22.663Z,16.50
2022-11-15T10:13:50.383Z,16.50
2022-11-15T10:16:47.952Z,15.90
2022-11-15T10:19:25.759Z,16.50
2022-11-15T10:22:03.645Z,16.70
2022-11-15T10:24:37.781Z,16.40
2022-11-15T10:27:12.773Z,16.30
2022-11-15T10:29:46.347Z,16.20
2022-11-15T10:32:19.436Z,16.80
2022-11-15T10:34:48.778Z,16.60
2022-11-15T10:37:29.161Z,16.70
2022-11-15T10:40:06.742Z,16.50
2022-11-15T10:42:35.196Z,16.00
2022-11-15T10:45:04.085Z,16.50
2022-11-15T10:47:39.191Z,16.90
2022-11-15T10:50:14.094Z,16.80
2022-11-15T10:52:48.996Z,16.70
2022-11-15T10:55:27.916Z,16.90
2022-11-15T10:57:58.173Z,16.90
2022-11-15T11:00:35.354Z,17.20
2022-11-15T11:03:08.211Z,17.10
2022-11-15T11:05:42.221Z,16.90
2022-11-15T11:08:24.598Z,16.70
2022-11-15T11:11:01.298Z,16.80
2022-11-15T11:13:33.163Z,17.10
2022-11-15T11:16:16.768Z,16.70
2022-11-15T11:18:54.122Z,16.90
2022-11-15T11:21:36.742Z,17.50
2022-11-15T11:24:15.172Z,15.40
2022-11-15T11:26:56.689Z,14.60
2022-11-15T11:29:35.358Z,14.30
2022-11-15T11:32:13.505Z,14.10
2022-11-15T11:34:55.542Z,14.30
2022-11-15T11:37:30.362Z,15.70
2022-11-15T11:40:10.855Z,16.60
2022-11-15T11:42:48.696Z,16.50
2022-11-15T11:45:23.562Z,16.90
2022-11-15T11:48:00.465Z,17.10
2022-11-15T11:50:30.677Z,17.20
2022-11-15T11:53:05.589Z,17.00
2022-11-15T11:55:37.449Z,17.10
2022-11-15T11:58:15.271Z,17.30
2022-11-15T12:00:48.593Z,17.10
2022-11-15T12:03:24.333Z,17.10
2022-11-15T12:05:58.710Z,17.00
2022-11-15T12:08:36.064Z,16.70
2022-11-15T12:11:12.325Z,16.80
2022-11-15T12:13:41.278Z,16.90
2022-11-15T12:16:16.241Z,17.20
2022-11-15T12:18:50.289Z,16.80
2022-11-15T12:21:28.887Z,17.00
2022-11-15T12:24:05.388Z,16.90
2022-11-15T12:26:38.324Z,16.80
2022-11-15T12:29:11.974Z,16.80
2022-11-15T12:31:43.094Z,17.10
2022-11-15T12:34:41.955Z,16.90
2022-11-15T12:37:58.330Z,17.20
2022-11-15T12:40:39.023Z,17.10
2022-11-15T12:43:31.181Z,17.00
2022-11-15T12:46:06.520Z,17.00
2022-11-15T12:48:53.502Z,17.30
2022-11-15T12:51:43.699Z,17.30
2022-11-15T12:54:49.163Z,16.70
2022-11-15T12:57:40.792Z,17.40
2022-11-15T13:00:42.062Z,17.40
2022-11-15T13:03:29.030Z,17.40
2022-11-15T13:06:32.613Z,17.10
2022-11-15T13:09:00.901Z,17.10
2022-11-15T13:11:49.490Z,17.00
2022-11-15T13:14:45.145Z,17.00
2022-11-15T13:17:31.989Z,16.90
2022-11-15T13:20:18.472Z,17.00
2022-11-15T13:22:55.516Z,17.30
2022-11-15T13:25:56.278Z,16.70
2022-11-15T13:28:32.812Z,17.00
2022-11-15T13:31:24.186Z,17.10
2022-11-15T13:33:53.479Z,17.30
2022-11-15T13:36:24.289Z,17.00
2022-11-15T13:39:00.773Z,17.00
2022-11-15T13:41:31.013Z,16.90
2022-11-15T13:44:00.466Z,16.00
2022-11-15T13:46:31.804Z,16.70
2022-11-15T13:49:01.526Z,17.20
2022-11-15T13:51:35.671Z,17.30
2022-11-15T13:54:10.118Z,17.30
2022-11-15T13:56:39.635Z,16.90
2022-11-15T13:59:12.524Z,16.40
2022-11-15T14:01:44.702Z,17.00
2022-11-15T14:04:16.659Z,17.10
2022-11-15T14:06:50.787Z,16.60
2022-11-15T14:09:35.434Z,17.00
2022-11-15T14:12:22.605Z,16.90
2022-11-15T14:14:51.051Z,17.30
2022-11-15T14:17:24.672Z,16.70
2022-11-15T14:19:53.513Z,16.40
2022-11-15T14:22:26.571Z,16.90
2022-11-15T14:25:19.998Z,16.60
2022-11-15T14:28:18.027Z,16.70
2022-11-15T14:30:51.008Z,16.80
2022-11-15T14:33:27.292Z,16.80
2022-11-15T14:35:57.046Z,17.00
2022-11-15T14:38:26.015Z,17.00
2022-11-15T14:40:54.898Z,17.20
2022-11-15T14:43:23.539Z,16.70
2022-11-15T14:45:51.775Z,17.00
2022-11-15T14:48:20.388Z,17.20
2022-11-15T14:50:50.568Z,17.30
2022-11-15T14:53:20.899Z,17.10
2022-11-15T14:55:49.321Z,16.40
2022-11-15T14:58:17.563Z,16.20
2022-11-15T15:00:46.008Z,16.70
2022-11-15T15:03:14.450Z,16.80
2022-11-15T15:05:43.843Z,16.70
2022-11-15T15:08:13.708Z,16.90
2022-11-15T15:10:44.046Z,16.90
2022-11-15T15:13:19.311Z,17.00
2022-11-15T15:15:47.981Z,17.40
2022-11-15T15:18:16.693Z,17.30
2022-11-15T15:20:46.844Z,17.10
2022-11-15T15:23:24.003Z,17.10
2022-11-15T15:25:53.755Z,17.20
2022-11-15T15:28:22.332Z,17.20
2022-11-15T15:30:50.816Z,16.90
2022-11-15T15:33:19.151Z,16.90
2022-11-15T15:35:48.096Z,16.90
2022-11-15T15:38:16.877Z,17.30
2022-11-15T15:40:46.406Z,16.40
2022-11-15T15:43:14.873Z,16.50
2022-11-15T15:45:45.875Z,16.90
2022-11-15T15:48:15.795Z,16.80
2022-11-15T15:50:44.874Z,16.30
2022-11-15T15:53:14.111Z,16.90
2022-11-15T15:55:42.681Z,17.30
2022-11-15T15:58:12.426Z,16.90
2022-11-15T16:00:41.789Z,17.00
2022-11-15T16:03:10.247Z,17.00
2022-11-15T16:05:38.647Z,16.80
2022-11-15T16:08:07.213Z,16.60
2022-11-15T16:10:37.684Z,16.50
2022-11-15T16:13:06.210Z,16.50
2022-11-15T16:15:36.857Z,16.70
2022-11-15T16:18:07.435Z,16.80
2022-11-15T16:20:39.446Z,17.00
2022-11-15T16:23:10.175Z,17.00
2022-11-15T16:25:44.193Z,16.80
2022-11-15T16:28:20.075Z,17.00
2022-11-15T16:30:53.856Z,17.20
2022-11-15T16:33:25.784Z,17.20
2022-11-15T16:35:54.132Z,17.40
2022-11-15T16:38:22.833Z,17.10
2022-11-15T16:40:51.244Z,17.00
2022-11-15T16:43:19.573Z,16.90
2022-11-15T16:45:50.487Z,17.00
2022-11-15T16:48:25.194Z,17.30
2022-11-15T16:50:56.903Z,17.00
2022-11-15T16:53:25.409Z,17.10
2022-11-15T16:55:53.675Z,16.70
2022-11-15T16:58:23.590Z,17.00
2022-11-15T17:00:54.833Z,17.00
2022-11-15T17:03:24.102Z,17.00
2022-11-15T17:05:53.151Z,16.70
2022-11-15T17:08:22.592Z,16.70
2022-11-15T17:10:50.999Z,15.60
2022-11-15T17:13:19.259Z,14.60
2022-11-15T17:15:47.526Z,14.10
2022-11-15T17:18:17.074Z,13.90
2022-11-15T17:20:45.470Z,13.70
2022-11-15T17:23:15.400Z,13.60
2022-11-15T17:25:44.203Z,13.40
2022-11-15T17:28:12.712Z,13.30
2022-11-15T17:30:43.648Z,13.20
2022-11-15T17:33:11.920Z,13.20
2022-11-15T17:35:41.380Z,13.20
2022-11-15T17:38:09.561Z,13.10
2022-11-15T17:40:37.835Z,13.10
2022-11-15T17:43:07.283Z,13.10
2022-11-15T17:45:35.642Z,13.00
2022-11-15T17:48:04.049Z,13.00
2022-11-15T17:50:32.471Z,13.00
2022-11-15T17:53:02.392Z,12.90
2022-11-15T17:55:30.756Z,13.40
2022-11-15T17:57:59.242Z,14.10
2022-11-15T18:00:27.658Z,14.70
2022-11-15T18:02:57.850Z,14.30
2022-11-15T18:05:26.287Z,15.00
2022-11-15T18:07:54.686Z,14.80
2022-11-15T18:10:24.223Z,14.80
2022-11-15T18:12:52.611Z,14.90
2022-11-15T18:15:21.567Z,15.60
2022-11-15T18:17:49.864Z,15.70
2022-11-15T18:20:18.437Z,16.00
2022-11-15T18:22:47.420Z,15.60
2022-11-15T18:25:16.292Z,15.90
2022-11-15T18:27:45.951Z,15.80
2022-11-15T18:30:14.719Z,16.20
2022-11-15T18:32:43.413Z,16.10
2022-11-15T18:35:11.750Z,16.10
2022-11-15T18:37:40.132Z,16.20
2022-11-15T18:40:09.727Z,15.60
2022-11-15T18:42:38.084Z,16.10
2022-11-15T18:45:09.642Z,16.00
2022-11-15T18:47:38.667Z,16.00
2022-11-15T18:50:07.578Z,16.30
2022-11-15T18:52:35.976Z,16.00
2022-11-15T18:55:04.559Z,16.00
2022-11-15T18:57:32.968Z,16.30
2022-11-15T19:00:01.345Z,15.80
2022-11-15T19:02:31.434Z,16.00
2022-11-15T19:04:59.867Z,15.90
2022-11-15T19:07:28.469Z,16.00
2022-11-15T19:09:57.072Z,16.40
2022-11-15T19:12:25.855Z,15.80
2022-11-15T19:14:54.358Z,16.10
2022-11-15T19:17:22.732Z,14.90
2022-11-15T19:19:52.232Z,15.30
2022-11-15T19:22:20.838Z,15.70
2022-11-15T19:24:49.230Z,16.10
2022-11-15T19:27:17.836Z,16.70
2022-11-15T19:29:46.043Z,16.60
2022-11-15T19:32:14.330Z,16.70
2022-11-15T19:34:43.026Z,17.00
2022-11-15T19:37:12.844Z,16.70
2022-11-15T19:39:41.523Z,16.50
2022-11-15T19:42:09.941Z,16.20
2022-11-15T19:44:38.575Z,15.90
2022-11-15T19:47:09.407Z,16.40
2022-11-15T19:49:37.781Z,16.60
2022-11-15T19:52:06.829Z,16.40
2022-11-15T19:54:36.634Z,16.20
2022-11-15T19:57:05.130Z,16.40
2022-11-15T19:59:33.600Z,16.10
2022-11-15T20:02:02.152Z,16.00
2022-11-15T20:04:31.019Z,15.80
2022-11-15T20:06:59.556Z,15.80
2022-11-15T20:09:27.813Z,15.70
2022-11-15T20:11:58.931Z,15.80
2022-11-15T20:14:29.342Z,15.80
2022-11-15T20:16:57.979Z,16.30
2022-11-15T20:19:26.426Z,16.10
2022-11-15T20:21:54.902Z,15.80
2022-11-15T20:24:23.319Z,15.70
2022-11-15T20:26:51.811Z,16.00
2022-11-15T20:29:21.550Z,15.80
2022-11-15T20:31:49.987Z,15.70
2022-11-15T20:34:18.661Z,15.80
2022-11-15T20:36:47.190Z,15.60
2022-11-15T20:39:15.645Z,15.60
2022-11-15T20:41:43.907Z,16.00
2022-11-15T20:44:12.193Z,16.00
2022-11-15T20:46:41.751Z,16.20
2022-11-15T20:49:10.197Z,16.00
2022-11-15T20:51:38.601Z,16.30
2022-11-15T20:54:07.285Z,15.70
2022-11-15T20:56:35.705Z,15.50
2022-11-15T20:59:04.192Z,15.50
2022-11-15T21:01:32.657Z,16.00
2022-11-15T21:04:02.691Z,15.90
2022-11-15T21:06:31.539Z,16.10
2022-11-15T21:09:17.153Z,16.00
2022-11-15T21:12:02.836Z,16.00
2022-11-15T21:14:31.655Z,15.80
2022-11-15T21:17:00.551Z,15.60
2022-11-15T21:19:35.608Z,16.00
2022-11-15T21:22:06.201Z,15.80
2022-11-15T21:24:34.746Z,15.70
2022-11-15T21:27:03.069Z,15.80
2022-11-15T21:29:37.419Z,16.00
2022-11-15T21:32:07.257Z,16.00
2022-11-15T21:34:37.550Z,16.10
2022-11-15T21:37:06.196Z,16.40
2022-11-15T21:39:34.814Z,16.60
2022-11-15T21:42:03.422Z,16.30
2022-11-15T21:44:32.054Z,16.10
2022-11-15T21:47:00.451Z,16.20
2022-11-15T21:49:28.999Z,16.60
2022-11-15T21:51:58.697Z,16.70
2022-11-15T21:54:27.336Z,16.40
2022-11-15T21:56:55.771Z,16.50
2022-11-15T21:59:24.171Z,16.30
2022-11-15T22:02:10.235Z,16.50
2022-11-15T22:04:38.582Z,16.20
2022-11-15T22:07:08.339Z,15.50
2022-11-15T22:09:36.962Z,15.00
2022-11-15T22:12:05.519Z,14.70
2022-11-15T22:14:34.053Z,14.40
2022-11-15T22:17:02.458Z,14.30
2022-11-15T22:19:31.219Z,14.20
2022-11-15T22:21:59.615Z,14.10
2022-11-15T22:24:29.242Z,14.00
2022-11-15T22:26:57.698Z,13.70
2022-11-15T22:29:26.048Z,13.50
2022-11-15T22:31:54.488Z,13.50
2022-11-15T22:34:23.182Z,13.50
2022-11-15T22:37:19.121Z,13.50
2022-11-15T22:39:42.466Z,13.40
2022-11-15T22:42:10.784Z,13.30
2022-11-15T22:44:39.317Z,13.20
2022-11-15T22:47:07.629Z,13.00
2022-11-15T22:49:35.874Z,13.20
2022-11-15T22:52:04.308Z,13.20
2022-11-15T22:54:32.446Z,13.00
2022-11-15T22:57:02.017Z,13.10
2022-11-15T22:59:30.364Z,12.90
2022-11-15T23:01:58.825Z,12.90
2022-11-15T23:04:27.494Z,13.00
2022-11-15T23:06:56.360Z,13.00
2022-11-15T23:09:24.707Z,13.00
2022-11-15T23:12:10.753Z,12.90
2022-11-15T23:14:41.074Z,12.90
2022-11-15T23:17:09.472Z,12.80
2022-11-15T23:19:37.778Z,12.70
2022-11-15T23:22:23.684Z,12.70
2022-11-15T23:24:53.317Z,12.70
2022-11-15T23:27:21.582Z,12.60
2022-11-15T23:30:08.440Z,12.50
2022-11-15T23:32:54.496Z,12.60
2022-11-15T23:35:22.903Z,12.60
2022-11-15T23:37:51.304Z,12.60
2022-11-15T23:40:19.886Z,12.70
2022-11-15T23:42:48.455Z,12.80
2022-11-15T23:45:18.592Z,12.80
2022-11-15T23:47:46.822Z,12.80
2022-11-15T23:50:14.985Z,12.90
2022-11-15T23:52:43.846Z,13.00
2022-11-15T23:55:12.266Z,13.00
2022-11-15T23:57:40.603Z,13.00
